^^
Datos históricos de la estación: Murcia-Puente Tocinos
Diario Informe para Abril 4, 2019 Unidades:  Métrico    Inglés   Ambas
Diario Semanal Mensual Anual Configurable
  Máximo: Mínimo: Media:
Temperatura: 18.3 °C 11.4 °C 15.2 °C
Punto de rocio: 10.4 °C 2.2 °C 6.7 °C
Humedad: 83% 37% 59%
Velocidad viento: 20.9km/h 0.0km/h 8.6km/h
Racha viento: 37.0km/h - -
Viento- - SSE
Presión: 1004.3 hPa 999.4 hPa -
Precipitación: 0.0 mm    
Historical Graphs
 
 
Tabla de datos para Abril 4, 2019
Hora Temperatura Punto de rocio Presión Viento Velocidad viento Racha viento Humedad Intensidad lluvia(por hora) Nubes
00:00 18.1 °C 8.4 °C 999.4 hPa SSW 8.0 km/h 14.5 km/h 53% 0.0 mm CLR
00:05 18.0 °C 8.3 °C 999.5 hPa West 8.4 km/h 7.4 km/h 53% 0.0 mm CLR
00:10 17.9 °C 8.2 °C 999.5 hPa South 6.9 km/h 11.1 km/h 53% 0.0 mm CLR
00:15 17.9 °C 7.6 °C 999.5 hPa WSW 6.9 km/h 9.3 km/h 51% 0.0 mm CLR
00:20 18.0 °C 7.1 °C 999.6 hPa WSW 6.9 km/h 7.4 km/h 49% 0.0 mm CLR
00:25 18.0 °C 6.8 °C 999.6 hPa WNW 6.9 km/h 14.8 km/h 48% 0.0 mm CLR
00:30 18.1 °C 6.3 °C 999.6 hPa NW 6.9 km/h 14.8 km/h 46% 0.0 mm CLR
00:35 18.2 °C 5.7 °C 999.7 hPa NW 6.9 km/h 25.9 km/h 44% 0.0 mm CLR
00:40 18.3 °C 4.8 °C 999.7 hPa NW 13.0 km/h 24.1 km/h 41% 0.0 mm CLR
00:45 18.3 °C 4.8 °C 999.7 hPa NW 13.0 km/h 20.4 km/h 41% 0.0 mm CLR
00:50 18.3 °C 4.8 °C 999.7 hPa WNW 13.0 km/h 20.4 km/h 41% 0.0 mm CLR
00:55 18.2 °C 4.4 °C 999.7 hPa WNW 13.0 km/h 20.4 km/h 40% 0.0 mm CLR
01:00 18.2 °C 4.4 °C 999.7 hPa WNW 12.9 km/h 19.3 km/h 40% 0.0 mm CLR
01:05 18.1 °C 4.3 °C 999.7 hPa WNW 13.7 km/h 17.2 km/h 40% 0.0 mm CLR
01:10 18.1 °C 4.3 °C 999.7 hPa WNW 12.2 km/h 20.4 km/h 40% 0.0 mm CLR
01:15 17.9 °C 4.1 °C 999.7 hPa West 12.2 km/h 14.8 km/h 40% 0.0 mm CLR
01:20 17.8 °C 4.0 °C 1000.0 hPa WNW 11.1 km/h 11.1 km/h 40% 0.0 mm CLR
01:25 17.7 °C 3.9 °C 1000.0 hPa NW 11.1 km/h 9.5 km/h 40% 0.0 mm CLR
01:30 17.7 °C 4.3 °C 1000.0 hPa West 6.4 km/h 5.6 km/h 41% 0.0 mm CLR
01:35 17.5 °C 4.4 °C 1000.3 hPa ENE 6.4 km/h 7.6 km/h 42% 0.0 mm CLR
01:40 17.3 °C 4.3 °C 1000.3 hPa NE 3.9 km/h 3.7 km/h 42% 0.0 mm CLR
01:45 17.3 °C 3.9 °C 1000.3 hPa SW 3.9 km/h 7.6 km/h 41% 0.0 mm CLR
01:50 17.3 °C 4.3 °C 1000.3 hPa South 3.9 km/h 9.3 km/h 42% 0.0 mm CLR
01:55 17.3 °C 3.6 °C 1000.3 hPa SW 3.9 km/h 9.3 km/h 40% 0.0 mm CLR
02:00 17.4 °C 3.6 °C 1000.3 hPa WSW 4.8 km/h 12.9 km/h 40% 0.0 mm CLR
02:05 17.4 °C 3.7 °C 1000.4 hPa West 5.8 km/h 5.6 km/h 40% 0.0 mm CLR
02:10 17.3 °C 3.9 °C 1000.4 hPa West 5.8 km/h 5.8 km/h 41% 0.0 mm CLR
02:15 17.2 °C 3.8 °C 1000.4 hPa WSW 5.8 km/h 7.4 km/h 41% 0.0 mm CLR
02:20 17.2 °C 3.4 °C 1000.4 hPa West 4.7 km/h 5.6 km/h 40% 0.0 mm CLR
02:25 17.3 °C 3.6 °C 1000.4 hPa West 4.7 km/h 7.4 km/h 40% 0.0 mm CLR
02:30 17.2 °C 3.8 °C 1000.4 hPa SW 4.7 km/h 3.7 km/h 41% 0.0 mm CLR
02:35 17.1 °C 3.7 °C 1000.5 hPa SW 4.7 km/h 3.7 km/h 41% 0.0 mm CLR
02:40 17.1 °C 3.7 °C 1000.5 hPa SW 2.9 km/h   41% 0.0 mm CLR
02:45 17.0 °C 3.7 °C 1000.5 hPa West 2.9 km/h 14.8 km/h 41% 0.0 mm CLR
02:50 16.9 °C 3.9 °C 1000.3 hPa WNW 5.8 km/h 9.3 km/h 42% 0.0 mm CLR
02:55 16.8 °C 3.8 °C 1000.3 hPa NNW 5.8 km/h 9.3 km/h 42% 0.0 mm CLR
03:00 16.7 °C 4.1 °C 1000.3 hPa NW 8.0 km/h 12.9 km/h 43% 0.0 mm CLR
03:05 15.9 °C 6.1 °C 1000.6 hPa NNE 6.4 km/h 18.5 km/h 52% 0.0 mm CLR
03:10 15.1 °C 6.9 °C 1000.6 hPa NNE 9.5 km/h 14.8 km/h 58% 0.0 mm CLR
03:15 14.4 °C 8.1 °C 1000.6 hPa NE 9.5 km/h 14.8 km/h 66% 0.0 mm CLR
03:20 14.1 °C 9.1 °C 1000.6 hPa NE 10.0 km/h 13.0 km/h 72% 0.0 mm CLR
03:25 13.8 °C 9.8 °C 1000.6 hPa NNE 10.0 km/h 16.7 km/h 77% 0.0 mm CLR
03:30 13.6 °C 10.0 °C 1000.6 hPa NNE 10.3 km/h 14.8 km/h 79% 0.0 mm CLR
03:35 13.4 °C 10.2 °C 1000.7 hPa NNE 10.3 km/h 13.0 km/h 81% 0.0 mm CLR
03:40 13.3 °C 10.3 °C 1000.7 hPa North 10.3 km/h 16.7 km/h 82% 0.0 mm CLR
03:45 13.2 °C 10.4 °C 1000.7 hPa NE 10.3 km/h 14.8 km/h 83% 0.0 mm CLR
03:50 13.2 °C 10.4 °C 1000.7 hPa NNE 10.0 km/h 9.3 km/h 83% 0.0 mm CLR
03:55 13.1 °C 10.3 °C 1000.7 hPa NNE 10.0 km/h 13.0 km/h 83% 0.0 mm CLR
04:00 13.1 °C 10.3 °C 1000.7 hPa NE 8.0 km/h 14.5 km/h 83% 0.0 mm CLR
04:05 13.0 °C 10.2 °C 1000.8 hPa NE 8.4 km/h 13.0 km/h 83% 0.0 mm CLR
04:10 13.0 °C 10.0 °C 1000.8 hPa NE 7.6 km/h 16.7 km/h 82% 0.0 mm CLR
04:15 12.9 °C 9.9 °C 1000.8 hPa NE 7.6 km/h 10.3 km/h 82% 0.0 mm CLR
04:20 12.9 °C 9.9 °C 1000.7 hPa NE 6.9 km/h 10.0 km/h 82% 0.0 mm CLR
04:25 12.8 °C 9.6 °C 1000.7 hPa NE 6.9 km/h 7.4 km/h 81% 0.0 mm CLR
04:30 12.8 °C 9.4 °C 1000.7 hPa NE 6.9 km/h 13.0 km/h 80% 0.0 mm CLR
04:35 12.8 °C 9.4 °C 1000.9 hPa NE 6.9 km/h 7.4 km/h 80% 0.0 mm CLR
04:40 12.7 °C 9.3 °C 1000.9 hPa NE 5.0 km/h 7.4 km/h 80% 0.0 mm CLR
04:45 12.7 °C 9.2 °C 1000.9 hPa NE 5.0 km/h 9.3 km/h 79% 0.0 mm CLR
04:50 12.7 °C 9.2 °C 1001.2 hPa NE 6.4 km/h 8.7 km/h 79% 0.0 mm CLR
04:55 12.7 °C 9.2 °C 1001.2 hPa NNE 6.4 km/h 7.4 km/h 79% 0.0 mm CLR
05:00 12.6 °C 9.1 °C 1001.2 hPa NE 8.0 km/h 11.3 km/h 79% 0.0 mm CLR
05:05 12.6 °C 9.1 °C 1001.2 hPa East 6.4 km/h 11.1 km/h 79% 0.0 mm CLR
05:10 12.7 °C 9.2 °C 1001.2 hPa ENE 7.6 km/h 11.1 km/h 79% 0.0 mm CLR
05:15 12.7 °C 8.9 °C 1001.2 hPa NNE 7.6 km/h 9.3 km/h 78% 0.0 mm CLR
05:20 12.6 °C 8.9 °C 1001.1 hPa ENE 6.4 km/h 13.0 km/h 78% 0.0 mm CLR
05:25 12.6 °C 8.9 °C 1001.1 hPa ENE 6.4 km/h 13.0 km/h 78% 0.0 mm CLR
05:30 12.6 °C 8.9 °C 1001.1 hPa East 5.8 km/h 9.3 km/h 78% 0.0 mm CLR
05:35 12.5 °C 8.8 °C 1001.3 hPa East 5.8 km/h 9.3 km/h 78% 0.0 mm CLR
05:40 12.5 °C 8.8 °C 1001.3 hPa East 5.8 km/h 5.6 km/h 78% 0.0 mm CLR
05:45 12.4 °C 8.5 °C 1001.3 hPa ESE 5.8 km/h 10.3 km/h 77% 0.0 mm CLR
05:50 12.3 °C 8.4 °C 1001.3 hPa ENE 6.4 km/h 11.1 km/h 77% 0.0 mm CLR
05:55 12.4 °C 8.3 °C 1001.3 hPa NE 6.4 km/h 11.1 km/h 76% 0.0 mm CLR
06:00 12.4 °C 8.3 °C 1001.3 hPa NE 8.0 km/h 14.5 km/h 76% 0.0 mm CLR
06:05 12.5 °C 8.2 °C 1001.5 hPa East 6.9 km/h 7.4 km/h 75% 0.0 mm CLR
06:10 12.5 °C 8.2 °C 1001.5 hPa NE 5.8 km/h 5.6 km/h 75% 0.0 mm CLR
06:15 12.4 °C 8.1 °C 1001.5 hPa NE 5.8 km/h 5.6 km/h 75% 0.0 mm CLR
06:20 12.4 °C 8.3 °C 1001.5 hPa ENE 3.9 km/h 7.4 km/h 76% 0.0 mm CLR
06:25 12.4 °C 8.3 °C 1001.5 hPa NE 3.9 km/h 7.4 km/h 76% 0.0 mm CLR
06:30 12.4 °C 8.3 °C 1001.5 hPa NE 4.7 km/h 8.4 km/h 76% 0.0 mm CLR
06:35 12.3 °C 8.2 °C 1001.7 hPa NE 4.7 km/h 5.8 km/h 76% 0.0 mm CLR
06:40 12.3 °C 8.2 °C 1001.7 hPa ENE 4.7 km/h 7.4 km/h 76% 0.0 mm CLR
06:45 12.3 °C 8.2 °C 1001.7 hPa ENE 4.7 km/h 7.4 km/h 76% 0.0 mm CLR
06:50 12.3 °C 8.2 °C 1001.7 hPa ENE 3.9 km/h 5.6 km/h 76% 0.0 mm CLR
06:55 12.3 °C 8.2 °C 1001.7 hPa East 3.9 km/h 7.4 km/h 76% 0.0 mm CLR
07:00 12.3 °C 8.2 °C 1001.7 hPa ENE 3.2 km/h 8.0 km/h 76% 0.0 mm CLR
07:05 12.3 °C 8.2 °C 1001.9 hPa ENE 3.9 km/h 3.7 km/h 76% 0.0 mm CLR
07:10 12.3 °C 8.2 °C 1001.9 hPa ENE 3.2 km/h 7.4 km/h 76% 0.0 mm CLR
07:15 12.2 °C 8.1 °C 1001.9 hPa NNE 3.2 km/h 7.4 km/h 76% 0.0 mm CLR
07:20 12.2 °C 8.3 °C 1002.1 hPa NNE 3.9 km/h 3.7 km/h 77% 0.0 mm CLR
07:25 12.0 °C 8.1 °C 1002.1 hPa NNE 3.9 km/h 3.7 km/h 77% 0.0 mm CLR
07:30 11.9 °C 8.2 °C 1002.1 hPa NNE 2.3 km/h 5.6 km/h 78% 0.0 mm CLR
07:35 11.8 °C 8.1 °C 1002.3 hPa NNW 2.3 km/h 7.4 km/h 78% 0.0 mm CLR
07:40 11.7 °C 8.2 °C 1002.3 hPa NNW 3.2 km/h 5.0 km/h 79% 0.0 mm CLR
07:45 11.6 °C 8.1 °C 1002.3 hPa NNW 3.2 km/h 1.9 km/h 79% 0.0 mm CLR
07:50 11.5 °C 8.2 °C 1002.3 hPa NNW 2.9 km/h 5.6 km/h 80% 0.0 mm CLR
07:55 11.5 °C 8.2 °C 1002.3 hPa NNW 2.9 km/h 5.6 km/h 80% 0.0 mm CLR
08:00 11.4 °C 8.1 °C 1002.3 hPa NNW 3.2 km/h 4.8 km/h 80% 0.0 mm CLR
08:05 11.4 °C 8.1 °C 1002.5 hPa NNW 3.2 km/h 3.7 km/h 80% 0.0 mm CLR
08:10 11.4 °C 8.1 °C 1002.5 hPa NW 2.9 km/h 7.4 km/h 80% 0.0 mm CLR
08:15 11.4 °C 8.3 °C 1002.5 hPa NW 2.9 km/h 7.4 km/h 81% 0.0 mm CLR
08:20 11.4 °C 8.3 °C 1002.7 hPa NW 4.7 km/h 5.6 km/h 81% 0.0 mm CLR
08:25 11.4 °C 8.3 °C 1002.7 hPa NW 4.7 km/h 7.4 km/h 81% 0.0 mm CLR
08:30 11.5 °C 8.3 °C 1002.7 hPa NW 3.9 km/h 7.4 km/h 81% 0.0 mm CLR
08:35 11.6 °C 8.4 °C 1002.9 hPa NW 3.9 km/h 5.0 km/h 81% 0.0 mm CLR
08:40 11.6 °C 8.3 °C 1002.9 hPa NW 3.2 km/h 5.6 km/h 80% 0.0 mm CLR
08:45 11.7 °C 8.4 °C 1002.9 hPa NW 3.2 km/h 5.6 km/h 80% 0.0 mm CLR
08:50 11.7 °C 8.4 °C 1003.1 hPa NW 3.2 km/h 5.6 km/h 80% 0.0 mm CLR
08:55 11.8 °C 8.4 °C 1003.1 hPa NW 3.2 km/h 3.7 km/h 80% 0.0 mm CLR
09:00 11.9 °C 8.6 °C 1003.1 hPa NW 3.2 km/h 4.8 km/h 80% 0.0 mm CLR
09:05 12.1 °C 8.8 °C 1003.3 hPa NW 2.9 km/h 3.7 km/h 80% 0.0 mm CLR
09:10 12.1 °C 8.6 °C 1003.3 hPa NW 2.3 km/h   79% 0.0 mm CLR
09:15 12.2 °C 8.7 °C 1003.3 hPa NW 2.3 km/h   79% 0.0 mm CLR
09:20 12.3 °C 8.6 °C 1003.5 hPa Calm     78% 0.0 mm CLR
09:25 12.6 °C 8.9 °C 1003.5 hPa Calm   7.4 km/h 78% 0.0 mm CLR
09:30 13.0 °C 8.9 °C 1003.5 hPa NE 2.9 km/h 7.4 km/h 76% 0.0 mm CLR
09:35 13.3 °C 9.2 °C 1003.5 hPa NW 2.9 km/h 5.6 km/h 76% 0.0 mm CLR
09:40 13.6 °C 9.2 °C 1003.5 hPa NW 3.2 km/h   75% 0.0 mm CLR
09:45 13.9 °C 9.1 °C 1003.5 hPa NE 3.2 km/h 5.8 km/h 73% 0.0 mm CLR
09:50 14.0 °C 8.6 °C 1003.6 hPa SSW 2.9 km/h 7.4 km/h 70% 0.0 mm CLR
09:55 13.8 °C 8.4 °C 1003.6 hPa SSE 2.9 km/h 5.6 km/h 70% 0.0 mm CLR
10:00 13.8 °C 8.6 °C 1003.6 hPa SSE 3.2 km/h 8.0 km/h 71% 0.0 mm CLR
10:05 13.9 °C 8.5 °C 1003.6 hPa SSE 4.7 km/h 9.3 km/h 70% 0.0 mm CLR
10:10 14.1 °C 8.5 °C 1003.6 hPa ESE 5.8 km/h 9.3 km/h 69% 0.0 mm CLR
10:15 14.0 °C 8.2 °C 1003.6 hPa South 5.8 km/h 9.3 km/h 68% 0.0 mm CLR
10:20 14.1 °C 8.5 °C 1003.8 hPa SSW 5.0 km/h 3.7 km/h 69% 0.0 mm CLR
10:25 14.2 °C 8.4 °C 1003.8 hPa East 5.0 km/h 9.3 km/h 68% 0.0 mm CLR
10:30 14.3 °C 8.4 °C 1003.8 hPa East 4.7 km/h 7.6 km/h 68% 0.0 mm CLR
10:35 14.3 °C 8.3 °C 1003.7 hPa South 4.7 km/h 11.1 km/h 67% 0.0 mm CLR
10:40 14.3 °C 8.4 °C 1003.7 hPa South 6.9 km/h 5.6 km/h 68% 0.0 mm CLR
10:45 14.7 °C 8.6 °C 1003.7 hPa SE 6.9 km/h 5.6 km/h 67% 0.0 mm CLR
10:50 14.8 °C 8.3 °C 1003.8 hPa SE 4.7 km/h 11.1 km/h 65% 0.0 mm CLR
10:55 14.8 °C 8.3 °C 1003.8 hPa SE 4.7 km/h 7.6 km/h 65% 0.0 mm CLR
11:00 14.9 °C 7.9 °C 1003.8 hPa South 4.8 km/h 14.5 km/h 63% 0.0 mm CLR
11:05 14.7 °C 7.7 °C 1003.9 hPa West 5.8 km/h 11.1 km/h 63% 0.0 mm CLR
11:10 14.8 °C 7.8 °C 1003.9 hPa SSW 6.9 km/h 9.3 km/h 63% 0.0 mm CLR
11:15 14.7 °C 7.3 °C 1003.9 hPa WNW 6.9 km/h 3.7 km/h 61% 0.0 mm CLR
11:20 14.9 °C 7.4 °C 1003.8 hPa WSW 3.2 km/h 5.6 km/h 61% 0.0 mm CLR
11:25 15.3 °C 7.6 °C 1003.8 hPa East 3.2 km/h 7.4 km/h 60% 0.0 mm CLR
11:30 15.6 °C 7.1 °C 1003.8 hPa SW 3.9 km/h 7.4 km/h 57% 0.0 mm CLR
11:35 15.7 °C 6.4 °C 1003.9 hPa NW 3.9 km/h 10.0 km/h 54% 0.0 mm CLR
11:40 15.8 °C 5.7 °C 1003.9 hPa SE 5.8 km/h 7.4 km/h 51% 0.0 mm CLR
11:45 15.9 °C 5.5 °C 1003.9 hPa ENE 5.8 km/h 9.3 km/h 50% 0.0 mm CLR
11:50 16.1 °C 5.4 °C 1004.1 hPa NE 4.7 km/h 7.4 km/h 49% 0.0 mm CLR
11:55 15.9 °C 6.1 °C 1004.1 hPa SW 4.7 km/h 13.0 km/h 52% 0.0 mm CLR
12:00 15.7 °C 6.2 °C 1004.1 hPa West 8.0 km/h 19.3 km/h 53% 0.0 mm CLR
12:05 15.3 °C 5.8 °C 1004.3 hPa WNW 8.4 km/h 13.0 km/h 53% 0.0 mm CLR
12:10 15.2 °C 5.4 °C 1004.3 hPa WNW 9.5 km/h 11.1 km/h 52% 0.0 mm CLR
12:15 15.2 °C 5.1 °C 1004.3 hPa West 9.5 km/h 7.4 km/h 51% 0.0 mm CLR
12:20 15.3 °C 4.6 °C 1004.2 hPa West 5.8 km/h 3.7 km/h 49% 0.0 mm CLR
12:25 15.6 °C 4.0 °C 1004.2 hPa West 5.8 km/h 3.7 km/h 46% 0.0 mm CLR
12:30 15.8 °C 4.2 °C 1004.2 hPa ENE 3.2 km/h 7.4 km/h 46% 0.0 mm CLR
12:35 16.0 °C 4.4 °C 1004.2 hPa NE 3.2 km/h 7.4 km/h 46% 0.0 mm CLR
12:40 16.3 °C 4.7 °C 1004.2 hPa SW 3.9 km/h 18.5 km/h 46% 0.0 mm CLR
12:45 16.3 °C 4.3 °C 1004.2 hPa WSW 3.9 km/h 16.7 km/h 45% 0.0 mm CLR
12:50 16.2 °C 4.6 °C 1004.1 hPa WSW 8.7 km/h 9.3 km/h 46% 0.0 mm CLR
12:55 16.2 °C 4.6 °C 1004.1 hPa West 8.7 km/h 7.6 km/h 46% 0.0 mm CLR
13:00 16.0 °C 4.3 °C 1004.1 hPa WSW 8.0 km/h 9.7 km/h 46% 0.0 mm CLR
13:05 15.8 °C 3.9 °C 1004.0 hPa WSW 6.4 km/h 7.4 km/h 45% 0.0 mm CLR
13:10 16.0 °C 4.1 °C 1004.0 hPa South 3.9 km/h 9.3 km/h 45% 0.0 mm CLR
13:15 16.2 °C 4.2 °C 1004.0 hPa SSE 3.9 km/h 13.0 km/h 45% 0.0 mm CLR
13:20 16.4 °C 4.1 °C 1003.9 hPa SSW 7.6 km/h 7.4 km/h 44% 0.0 mm CLR
13:25 16.6 °C 3.9 °C 1003.9 hPa SSE 7.6 km/h 13.0 km/h 43% 0.0 mm CLR
13:30 16.7 °C 3.7 °C 1003.9 hPa South 5.8 km/h 11.1 km/h 42% 0.0 mm CLR
13:35 16.7 °C 3.7 °C 1003.8 hPa ESE 5.8 km/h 7.4 km/h 42% 0.0 mm CLR
13:40 16.7 °C 2.3 °C 1003.8 hPa ESE 6.9 km/h 13.0 km/h 38% 0.0 mm CLR
13:45 16.8 °C 2.4 °C 1003.8 hPa SE 6.9 km/h 11.1 km/h 38% 0.0 mm CLR
13:50 17.0 °C 2.2 °C 1003.6 hPa SE 8.7 km/h 11.1 km/h 37% 0.0 mm CLR
13:55 17.2 °C 2.4 °C 1003.6 hPa SSE 8.7 km/h 8.7 km/h 37% 0.0 mm CLR
14:00 17.4 °C 2.9 °C 1003.6 hPa SE 8.0 km/h 19.3 km/h 38% 0.0 mm CLR
14:05 17.2 °C 2.7 °C 1003.5 hPa East 8.4 km/h 11.1 km/h 38% 0.0 mm CLR
14:10 17.3 °C 2.4 °C 1003.5 hPa SE 9.5 km/h 13.0 km/h 37% 0.0 mm CLR
14:15 17.4 °C 2.6 °C 1003.5 hPa ESE 9.5 km/h 9.3 km/h 37% 0.0 mm CLR
14:20 17.3 °C 2.8 °C 1003.3 hPa SE 8.7 km/h 13.0 km/h 38% 0.0 mm CLR
14:25 17.2 °C 5.8 °C 1003.3 hPa SE 8.7 km/h 33.3 km/h 47% 0.0 mm CLR
14:30 17.1 °C 6.3 °C 1003.3 hPa SE 11.9 km/h 24.1 km/h 49% 0.0 mm CLR
14:35 17.1 °C 6.3 °C 1003.0 hPa ESE 11.9 km/h 25.9 km/h 49% 0.0 mm CLR
14:40 17.0 °C 5.9 °C 1003.0 hPa SSE 14.8 km/h 20.4 km/h 48% 0.0 mm CLR
14:45 16.9 °C 6.1 °C 1003.0 hPa SE 14.8 km/h 24.1 km/h 49% 0.0 mm CLR
14:50 16.9 °C 6.1 °C 1002.9 hPa SSE 14.0 km/h 24.1 km/h 49% 0.0 mm CLR
14:55 16.9 °C 5.5 °C 1002.9 hPa East 14.0 km/h 24.1 km/h 47% 0.0 mm CLR
15:00 16.9 °C 4.9 °C 1002.9 hPa SE 14.5 km/h 24.1 km/h 45% 0.0 mm CLR
15:05 17.2 °C 5.8 °C 1002.8 hPa ESE 15.6 km/h 27.8 km/h 47% 0.0 mm CLR
15:10 17.3 °C 5.9 °C 1002.8 hPa NE 16.1 km/h 24.1 km/h 47% 0.0 mm CLR
15:15 17.4 °C 5.7 °C 1002.8 hPa SSE 16.1 km/h 18.3 km/h 46% 0.0 mm CLR
15:20 17.2 °C 4.8 °C 1002.5 hPa SSE 16.4 km/h 16.7 km/h 44% 0.0 mm CLR
15:25 17.2 °C 6.1 °C 1002.5 hPa ESE 16.4 km/h 29.6 km/h 48% 0.0 mm CLR
15:30 17.2 °C 4.8 °C 1002.5 hPa South 15.6 km/h 18.5 km/h 44% 0.0 mm CLR
15:35 17.4 °C 5.0 °C 1002.2 hPa SE 15.6 km/h 25.1 km/h 44% 0.0 mm CLR
15:40 17.4 °C 5.0 °C 1002.2 hPa SE 15.6 km/h 18.5 km/h 44% 0.0 mm CLR
15:45 17.7 °C 5.6 °C 1002.2 hPa SE 15.6 km/h 27.8 km/h 45% 0.0 mm CLR
15:50 17.7 °C 5.3 °C 1002.1 hPa SSE 14.0 km/h 29.6 km/h 44% 0.0 mm CLR
15:55 17.6 °C 5.2 °C 1002.1 hPa SSE 14.0 km/h 19.0 km/h 44% 0.0 mm CLR
16:00 17.7 °C 5.0 °C 1002.1 hPa SSE 16.1 km/h 29.0 km/h 43% 0.0 mm CLR
16:05 17.5 °C 4.8 °C 1002.0 hPa SE 16.4 km/h 20.4 km/h 43% 0.0 mm CLR
16:10 17.6 °C 6.2 °C 1002.0 hPa East 18.3 km/h 25.9 km/h 47% 0.0 mm CLR
16:15 17.7 °C 6.2 °C 1002.0 hPa ESE 18.3 km/h 25.9 km/h 47% 0.0 mm CLR
16:20 17.8 °C 5.7 °C 1001.9 hPa ESE 17.2 km/h 24.1 km/h 45% 0.0 mm CLR
16:25 17.5 °C 6.1 °C 1001.9 hPa SSE 17.2 km/h 20.4 km/h 47% 0.0 mm CLR
16:30 17.6 °C 5.8 °C 1001.9 hPa East 18.0 km/h 18.5 km/h 46% 0.0 mm CLR
16:35 17.7 °C 5.6 °C 1001.8 hPa SE 18.0 km/h 24.1 km/h 45% 0.0 mm CLR
16:40 17.6 °C 5.5 °C 1001.8 hPa South 15.6 km/h 21.7 km/h 45% 0.0 mm CLR
16:45 17.6 °C 5.2 °C 1001.8 hPa SE 15.6 km/h 22.2 km/h 44% 0.0 mm CLR
16:50 17.8 °C 5.7 °C 1001.6 hPa SE 12.2 km/h 18.5 km/h 45% 0.0 mm CLR
16:55 18.0 °C 5.9 °C 1001.6 hPa ESE 12.2 km/h 22.2 km/h 45% 0.0 mm CLR
17:00 18.1 °C 5.9 °C 1001.6 hPa SE 12.9 km/h 27.4 km/h 45% 0.0 mm CLR
17:05 18.2 °C 6.4 °C 1001.5 hPa ESE 13.7 km/h 20.4 km/h 46% 0.0 mm CLR
17:10 18.1 °C 5.9 °C 1001.5 hPa SE 16.1 km/h 24.1 km/h 45% 0.0 mm CLR
17:15 18.1 °C 6.6 °C 1001.5 hPa East 16.1 km/h 18.5 km/h 47% 0.0 mm CLR
17:20 17.8 °C 6.6 °C 1001.6 hPa SSE 16.1 km/h 18.5 km/h 48% 0.0 mm CLR
17:25 17.9 °C 6.4 °C 1001.6 hPa SSE 16.1 km/h 27.8 km/h 47% 0.0 mm CLR
17:30 17.9 °C 6.4 °C 1001.6 hPa SE 15.6 km/h 20.4 km/h 47% 0.0 mm CLR
17:35 17.7 °C 6.2 °C 1001.5 hPa SE 15.6 km/h 20.4 km/h 47% 0.0 mm CLR
17:40 17.8 °C 6.3 °C 1001.5 hPa SE 15.6 km/h 24.1 km/h 47% 0.0 mm CLR
17:45 17.8 °C 6.6 °C 1001.5 hPa SSE 15.6 km/h 18.5 km/h 48% 0.0 mm CLR
17:50 17.8 °C 6.6 °C 1001.4 hPa SE 16.1 km/h 27.8 km/h 48% 0.0 mm CLR
17:55 17.7 °C 6.8 °C 1001.4 hPa SE 16.1 km/h 27.0 km/h 49% 0.0 mm CLR
18:00 17.4 °C 6.6 °C 1001.4 hPa SE 16.1 km/h 27.4 km/h 49% 0.0 mm CLR
18:05 17.6 °C 6.4 °C 1001.6 hPa SE 17.2 km/h 29.8 km/h 48% 0.0 mm CLR
18:10 17.4 °C 6.6 °C 1001.6 hPa SSE 19.0 km/h 27.8 km/h 49% 0.0 mm CLR
18:15 17.3 °C 6.5 °C 1001.6 hPa SSE 19.0 km/h 20.4 km/h 49% 0.0 mm CLR
18:20 17.2 °C 6.4 °C 1001.7 hPa SE 16.4 km/h 24.1 km/h 49% 0.0 mm CLR
18:25 17.1 °C 6.6 °C 1001.7 hPa ESE 16.4 km/h 37.0 km/h 50% 0.0 mm CLR
18:30 16.9 °C 6.7 °C 1001.7 hPa SE 19.0 km/h 33.3 km/h 51% 0.0 mm CLR
18:35 16.9 °C 6.7 °C 1001.7 hPa SE 19.0 km/h 20.4 km/h 51% 0.0 mm CLR
18:40 16.8 °C 6.9 °C 1001.7 hPa SE 16.1 km/h 22.2 km/h 52% 0.0 mm CLR
18:45 16.8 °C 6.6 °C 1001.7 hPa SE 16.1 km/h 28.6 km/h 51% 0.0 mm CLR
18:50 16.7 °C 6.5 °C 1001.8 hPa SE 14.8 km/h 25.9 km/h 51% 0.0 mm CLR
18:55 16.4 °C 6.5 °C 1001.8 hPa SSE 14.8 km/h 31.5 km/h 52% 0.0 mm CLR
19:00 16.3 °C 6.7 °C 1001.8 hPa SSE 20.9 km/h 32.2 km/h 53% 0.0 mm CLR
19:05 16.3 °C 6.7 °C 1001.9 hPa SE 20.1 km/h 29.6 km/h 53% 0.0 mm CLR
19:10 16.2 °C 6.9 °C 1001.9 hPa South 17.2 km/h 24.1 km/h 54% 0.0 mm CLR
19:15 16.2 °C 6.6 °C 1001.9 hPa SSE 17.2 km/h 24.1 km/h 53% 0.0 mm CLR
19:20 16.1 °C 6.8 °C 1002.0 hPa ESE 16.1 km/h 20.4 km/h 54% 0.0 mm CLR
19:25 16.1 °C 6.5 °C 1002.0 hPa SE 16.1 km/h 27.8 km/h 53% 0.0 mm CLR
19:30 16.1 °C 6.5 °C 1002.0 hPa SE 13.0 km/h 24.1 km/h 53% 0.0 mm CLR
19:35 15.9 °C 6.3 °C 1002.1 hPa SSE 13.0 km/h 24.1 km/h 53% 0.0 mm CLR
19:40 15.9 °C 6.6 °C 1002.1 hPa SE 14.8 km/h 29.6 km/h 54% 0.0 mm CLR
19:45 15.8 °C 6.5 °C 1002.1 hPa SE 14.8 km/h 18.5 km/h 54% 0.0 mm CLR
19:50 15.8 °C 6.2 °C 1002.1 hPa SE 13.7 km/h 24.1 km/h 53% 0.0 mm CLR
19:55 15.8 °C 6.2 °C 1002.1 hPa South 13.7 km/h 14.8 km/h 53% 0.0 mm CLR
20:00 15.7 °C 6.2 °C 1002.1 hPa South 12.9 km/h 19.3 km/h 53% 0.0 mm CLR
20:05 15.7 °C 5.9 °C 1002.3 hPa SE 12.2 km/h 20.4 km/h 52% 0.0 mm CLR
20:10 15.6 °C 6.1 °C 1002.3 hPa ESE 11.1 km/h 20.4 km/h 53% 0.0 mm CLR
20:15 15.6 °C 6.1 °C 1002.3 hPa ESE 11.1 km/h 18.5 km/h 53% 0.0 mm CLR
20:20 15.5 °C 6.2 °C 1002.3 hPa South 12.2 km/h 11.9 km/h 54% 0.0 mm CLR
20:25 15.4 °C 6.1 °C 1002.3 hPa SSE 12.2 km/h 16.7 km/h 54% 0.0 mm CLR
20:30 15.3 °C 6.3 °C 1002.3 hPa SSE 11.9 km/h 13.0 km/h 55% 0.0 mm CLR
20:35 15.3 °C 6.6 °C 1002.3 hPa South 11.9 km/h 13.0 km/h 56% 0.0 mm CLR
20:40 15.3 °C 6.6 °C 1002.3 hPa SSW 9.5 km/h 16.7 km/h 56% 0.0 mm CLR
20:45 15.2 °C 6.7 °C 1002.3 hPa South 9.5 km/h 19.8 km/h 57% 0.0 mm CLR
20:50 15.1 °C 6.6 °C 1002.3 hPa South 10.3 km/h 16.7 km/h 57% 0.0 mm CLR
20:55 15.0 °C 6.8 °C 1002.3 hPa SE 10.3 km/h 14.8 km/h 58% 0.0 mm CLR
21:00 15.1 °C 6.9 °C 1002.3 hPa SSE 11.3 km/h 16.1 km/h 58% 0.0 mm CLR
21:05 15.0 °C 6.8 °C 1002.3 hPa South 10.3 km/h 18.3 km/h 58% 0.0 mm CLR
21:10 14.9 °C 6.9 °C 1002.3 hPa SE 10.0 km/h 14.8 km/h 59% 0.0 mm CLR
21:15 14.8 °C 6.8 °C 1002.3 hPa SSE 10.0 km/h 18.5 km/h 59% 0.0 mm CLR
21:20 14.8 °C 7.1 °C 1002.4 hPa South 10.3 km/h 16.7 km/h 60% 0.0 mm CLR
21:25 14.7 °C 7.0 °C 1002.4 hPa ESE 10.3 km/h 16.7 km/h 60% 0.0 mm CLR
21:30 14.7 °C 7.0 °C 1002.4 hPa South 11.1 km/h 9.3 km/h 60% 0.0 mm CLR
21:35 14.7 °C 7.0 °C 1002.5 hPa South 11.1 km/h 14.8 km/h 60% 0.0 mm CLR
21:40 14.7 °C 7.0 °C 1002.5 hPa SE 7.6 km/h 13.0 km/h 60% 0.0 mm CLR
21:45 14.7 °C 7.0 °C 1002.5 hPa East 7.6 km/h 14.8 km/h 60% 0.0 mm CLR
21:50 14.7 °C 7.0 °C 1002.7 hPa SE 8.7 km/h 13.0 km/h 60% 0.0 mm CLR
21:55 14.7 °C 7.0 °C 1002.7 hPa SSW 8.7 km/h 11.1 km/h 60% 0.0 mm CLR
22:00 14.6 °C 6.9 °C 1002.7 hPa South 8.0 km/h 11.3 km/h 60% 0.0 mm CLR
22:05 14.6 °C 7.2 °C 1002.8 hPa South 7.6 km/h 7.6 km/h 61% 0.0 mm CLR
22:10 14.6 °C 6.9 °C 1002.8 hPa SSW 3.9 km/h 5.6 km/h 60% 0.0 mm CLR
22:15 14.6 °C 6.9 °C 1002.8 hPa South 3.9 km/h 7.4 km/h 60% 0.0 mm CLR
22:20 14.6 °C 6.9 °C 1002.8 hPa SSE 4.7 km/h 13.0 km/h 60% 0.0 mm CLR
22:25 14.6 °C 6.9 °C 1002.8 hPa WSW 4.7 km/h 7.4 km/h 60% 0.0 mm CLR
22:30 14.6 °C 6.9 °C 1002.8 hPa WSW 5.0 km/h 7.4 km/h 60% 0.0 mm CLR
22:35 14.7 °C 7.3 °C 1003.0 hPa SSE 5.0 km/h 8.4 km/h 61% 0.0 mm CLR
22:40 14.7 °C 7.0 °C 1003.0 hPa SSW 5.8 km/h 9.3 km/h 60% 0.0 mm CLR
22:45 14.7 °C 7.3 °C 1003.0 hPa SE 5.8 km/h 13.0 km/h 61% 0.0 mm CLR
22:50 14.6 °C 7.2 °C 1003.0 hPa SE 5.8 km/h 13.0 km/h 61% 0.0 mm CLR
22:55 14.6 °C 7.2 °C 1003.0 hPa SSW 5.8 km/h 9.3 km/h 61% 0.0 mm CLR
23:00 14.6 °C 7.2 °C 1003.0 hPa South 4.8 km/h 9.7 km/h 61% 0.0 mm CLR
23:05 14.6 °C 7.2 °C 1003.0 hPa South 5.0 km/h 7.4 km/h 61% 0.0 mm CLR
23:10 14.5 °C 7.1 °C 1003.0 hPa SE 5.8 km/h 9.3 km/h 61% 0.0 mm CLR
23:15 14.5 °C 7.3 °C 1003.0 hPa SE 5.8 km/h 3.7 km/h 62% 0.0 mm CLR
23:20 14.5 °C 7.1 °C 1003.1 hPa WSW 3.9 km/h 7.4 km/h 61% 0.0 mm CLR
23:25 14.6 °C 7.4 °C 1003.1 hPa SE 3.9 km/h 8.4 km/h 62% 0.0 mm CLR
23:30 14.6 °C 7.2 °C 1003.1 hPa South 5.0 km/h 7.4 km/h 61% 0.0 mm CLR
23:35 14.5 °C 7.3 °C 1003.2 hPa South 5.0 km/h 5.6 km/h 62% 0.0 mm CLR
23:40 14.5 °C 7.3 °C 1003.2 hPa South 3.9 km/h 5.6 km/h 62% 0.0 mm CLR
23:45 14.6 °C 7.4 °C 1003.2 hPa ESE 3.9 km/h 7.4 km/h 62% 0.0 mm CLR
23:50 14.6 °C 7.4 °C 1003.0 hPa SSE 3.9 km/h 7.4 km/h 62% 0.0 mm CLR
23:55 14.6 °C 7.4 °C 1003.0 hPa SSW 3.9 km/h 7.4 km/h 62% 0.0 mm CLR
Murcia-Puente Tocinos, España
Compliments of Weather Underground - 2.75 mb

La estación de MeteoMurcia.com, publica sus datos en los siguientes proyectos:

Weather Underground PWS IMURCIAP2 Meteoclimatic www.awekas.at

W3Counter
Web Analytics